createdAt,value
2022-08-30T00:03:02.217Z,20.03
2022-08-30T00:08:33.429Z,20.17
2022-08-30T00:11:27.093Z,20.12
2022-08-30T00:14:15.271Z,19.91
2022-08-30T00:17:07.360Z,19.78
2022-08-30T00:19:58.509Z,19.83
2022-08-30T00:25:37.110Z,19.92
2022-08-30T00:28:26.213Z,19.94
2022-08-30T00:34:04.074Z,19.81
2022-08-30T00:39:35.882Z,19.94
2022-08-30T00:45:08.835Z,19.65
2022-08-30T00:48:01.036Z,19.51
2022-08-30T00:53:35.271Z,19.50
2022-08-30T00:56:25.142Z,19.38
2022-08-30T00:59:14.592Z,19.32
2022-08-30T01:02:03.966Z,19.36
2022-08-30T01:04:53.434Z,19.44
2022-08-30T01:10:30.462Z,19.28
2022-08-30T01:16:02.483Z,19.24
2022-08-30T01:22:03.138Z,19.30
2022-08-30T01:27:36.080Z,19.21
2022-08-30T01:30:25.067Z,19.12
2022-08-30T01:36:07.235Z,19.11
2022-08-30T01:38:57.401Z,19.03
2022-08-30T01:41:46.631Z,18.94
2022-08-30T01:47:22.972Z,18.83
2022-08-30T01:50:13.918Z,18.70
2022-08-30T01:53:03.911Z,18.77
2022-08-30T01:58:43.812Z,18.98
2022-08-30T02:04:15.494Z,18.69
2022-08-30T02:09:46.278Z,18.79
2022-08-30T02:15:24.194Z,18.76
2022-08-30T02:20:59.339Z,18.76
2022-08-30T02:23:48.611Z,18.69
2022-08-30T02:26:38.026Z,18.80
2022-08-30T02:29:27.429Z,18.64
2022-08-30T02:35:20.131Z,18.50
2022-08-30T02:38:09.523Z,18.59
2022-08-30T02:41:00.271Z,18.55
2022-08-30T02:43:48.821Z,18.47
2022-08-30T02:49:33.243Z,18.50
2022-08-30T02:55:01.086Z,18.54
2022-08-30T02:57:49.273Z,18.59
2022-08-30T03:00:37.962Z,18.76
2022-08-30T03:03:27.001Z,18.63
2022-08-30T03:06:16.578Z,18.71
2022-08-30T03:09:04.829Z,18.61
2022-08-30T03:11:53.239Z,18.50
2022-08-30T03:14:42.687Z,18.40
2022-08-30T03:17:31.420Z,18.24
2022-08-30T03:23:05.942Z,18.22
2022-08-30T03:28:38.407Z,18.30
2022-08-30T03:31:27.185Z,18.24
2022-08-30T03:34:19.761Z,18.20
2022-08-30T03:39:57.856Z,18.35
2022-08-30T03:45:35.417Z,18.26
2022-08-30T03:51:08.985Z,18.29
2022-08-30T03:56:43.666Z,18.30
2022-08-30T03:59:32.274Z,18.26
2022-08-30T04:05:11.181Z,18.26
2022-08-30T04:10:47.505Z,18.21
2022-08-30T04:16:25.470Z,18.23
2022-08-30T04:19:13.959Z,18.00
2022-08-30T04:22:07.081Z,18.08
2022-08-30T04:27:43.914Z,17.88
2022-08-30T04:33:39.371Z,17.93
2022-08-30T04:39:11.876Z,18.03
2022-08-30T04:42:01.033Z,17.97
2022-08-30T04:51:21.760Z,18.08
2022-08-30T04:54:10.096Z,18.07
2022-08-30T04:57:04.146Z,18.00
2022-08-30T05:02:56.309Z,18.29
2022-08-30T05:05:50.793Z,18.43
2022-08-30T05:11:27.573Z,18.43
2022-08-30T05:16:56.743Z,18.52
2022-08-30T05:19:45.736Z,18.54
2022-08-30T05:22:37.108Z,18.68
2022-08-30T05:25:27.587Z,18.72
2022-08-30T05:28:16.369Z,18.84
2022-08-30T05:31:07.505Z,18.87
2022-08-30T05:34:00.341Z,18.99
2022-08-30T05:39:50.705Z,19.31
2022-08-30T05:42:30.290Z,19.45
2022-08-30T05:45:18.677Z,19.53
2022-08-30T05:48:07.384Z,19.67
2022-08-30T05:51:05.817Z,19.74
2022-08-30T05:56:39.099Z,19.98
2022-08-30T05:59:28.536Z,20.12
2022-08-30T06:02:19.743Z,20.26
2022-08-30T06:07:56.992Z,20.51
2022-08-30T06:10:45.232Z,20.69
2022-08-30T06:13:34.565Z,20.76
2022-08-30T06:19:04.956Z,21.01
2022-08-30T06:30:18.923Z,20.76
2022-08-30T06:38:33.724Z,20.79
2022-08-30T06:41:25.432Z,20.68
2022-08-30T06:44:14.323Z,20.58
2022-08-30T06:50:10.029Z,20.47
2022-08-30T06:55:39.216Z,20.69
2022-08-30T07:01:06.949Z,20.99
2022-08-30T07:03:57.059Z,21.31
2022-08-30T07:06:46.920Z,21.90
2022-08-30T07:12:17.546Z,22.89
2022-08-30T07:18:05.067Z,23.55
2022-08-30T07:20:54.381Z,23.53
2022-08-30T07:26:33.267Z,23.58
2022-08-30T07:32:07.598Z,23.99
2022-08-30T07:34:55.526Z,24.09
2022-08-30T07:37:44.015Z,24.37
2022-08-30T07:43:19.369Z,24.73
2022-08-30T07:46:09.661Z,24.81
2022-08-30T07:49:00.627Z,24.94
2022-08-30T07:54:31.634Z,25.04
2022-08-30T07:57:21.978Z,25.19
2022-08-30T08:02:55.698Z,25.28
2022-08-30T08:08:27.882Z,25.40
2022-08-30T08:14:05.714Z,25.71
2022-08-30T08:19:41.821Z,25.61
2022-08-30T08:25:17.271Z,25.51
2022-08-30T08:28:06.081Z,25.58
2022-08-30T08:33:34.462Z,25.59
2022-08-30T08:36:22.908Z,25.47
2022-08-30T08:39:12.086Z,25.04
2022-08-30T08:44:55.542Z,25.52
2022-08-30T08:47:48.147Z,25.65
2022-08-30T08:50:47.282Z,25.77
2022-08-30T08:53:52.473Z,25.35
2022-08-30T08:59:18.379Z,25.48
2022-08-30T09:04:48.344Z,25.57
2022-08-30T09:10:46.934Z,25.71
2022-08-30T09:13:18.956Z,25.81
2022-08-30T09:18:58.682Z,25.53
2022-08-30T09:24:42.983Z,25.95
2022-08-30T09:30:16.341Z,26.31
2022-08-30T09:35:54.107Z,26.31
2022-08-30T09:38:42.944Z,26.53
2022-08-30T09:41:43.279Z,26.78
2022-08-30T09:47:25.803Z,27.03
2022-08-30T09:53:09.881Z,27.01
2022-08-30T09:56:03.506Z,26.91
2022-08-30T10:01:47.461Z,27.30
2022-08-30T10:10:17.136Z,26.91
2022-08-30T10:15:50.251Z,26.53
2022-08-30T10:21:32.039Z,26.64
2022-08-30T10:24:22.987Z,26.76
2022-08-30T10:29:58.311Z,26.98
2022-08-30T10:35:38.527Z,26.36
2022-08-30T10:41:35.251Z,26.42
2022-08-30T10:47:18.592Z,26.38
2022-08-30T10:55:37.283Z,26.80
2022-08-30T11:01:28.777Z,26.81
2022-08-30T11:07:29.135Z,26.26
2022-08-30T11:13:04.687Z,26.30
2022-08-30T11:15:59.126Z,26.27
2022-08-30T11:21:37.463Z,26.45
2022-08-30T11:24:27.108Z,26.21
2022-08-30T11:30:53.245Z,26.71
2022-08-30T11:37:10.462Z,27.05
2022-08-30T11:40:02.068Z,27.16
2022-08-30T11:45:54.120Z,27.09
2022-08-30T11:51:30.582Z,27.11
2022-08-30T11:54:31.764Z,27.05
2022-08-30T12:00:16.347Z,27.24
2022-08-30T12:03:06.970Z,27.35
2022-08-30T12:12:07.525Z,27.75
2022-08-30T12:18:15.760Z,28.06
2022-08-30T12:23:56.962Z,28.55
2022-08-30T12:29:34.471Z,29.21
2022-08-30T12:35:11.207Z,29.88
2022-08-30T12:38:05.956Z,29.79
2022-08-30T12:43:51.120Z,29.36
2022-08-30T12:49:20.421Z,29.04
2022-08-30T12:55:17.687Z,28.69
2022-08-30T12:58:07.247Z,28.41
2022-08-30T13:04:03.513Z,27.92
2022-08-30T13:09:37.849Z,27.91
2022-08-30T13:12:27.644Z,27.99
2022-08-30T13:18:28.064Z,28.65
2022-08-30T13:24:24.869Z,28.68
2022-08-30T13:32:45.863Z,28.57
2022-08-30T13:35:36.611Z,28.41
2022-08-30T13:38:30.956Z,28.32
2022-08-30T13:44:12.230Z,28.55
2022-08-30T13:46:55.541Z,28.63
2022-08-30T13:49:47.355Z,28.73
2022-08-30T13:52:35.922Z,28.51
2022-08-30T13:58:13.297Z,28.44
2022-08-30T14:01:02.620Z,28.41
2022-08-30T14:12:14.653Z,28.85
2022-08-30T14:15:03.310Z,28.62
2022-08-30T14:23:21.289Z,28.76
2022-08-30T14:28:59.187Z,28.89
2022-08-30T14:34:29.918Z,28.93
2022-08-30T14:37:18.401Z,28.81
2022-08-30T14:42:59.024Z,28.79
2022-08-30T14:45:47.571Z,28.83
2022-08-30T14:48:37.043Z,28.89
2022-08-30T14:51:26.284Z,28.93
2022-08-30T14:54:15.783Z,29.00
2022-08-30T14:59:53.274Z,28.58
2022-08-30T15:02:42.471Z,28.35
2022-08-30T15:10:58.702Z,28.46
2022-08-30T15:13:48.151Z,28.43
2022-08-30T15:16:39.233Z,28.67
2022-08-30T15:22:15.539Z,28.72
2022-08-30T15:25:05.382Z,28.48
2022-08-30T15:31:28.250Z,28.33
2022-08-30T15:37:04.803Z,28.41
2022-08-30T15:45:20.581Z,28.36
2022-08-30T15:50:53.801Z,28.16
2022-08-30T15:56:27.780Z,28.06
2022-08-30T16:01:57.311Z,27.84
2022-08-30T16:04:46.442Z,27.93
2022-08-30T16:10:17.913Z,27.89
2022-08-30T16:13:07.925Z,27.90
2022-08-30T16:15:57.853Z,27.88
2022-08-30T16:18:46.854Z,27.82
2022-08-30T16:21:39.851Z,27.63
2022-08-30T16:24:29.244Z,27.30
2022-08-30T16:27:18.509Z,27.38
2022-08-30T16:30:15.663Z,27.30
2022-08-30T16:36:10.939Z,27.15
2022-08-30T16:41:46.603Z,27.14
2022-08-30T16:44:36.706Z,27.01
2022-08-30T16:50:08.751Z,26.88
2022-08-30T16:55:42.688Z,26.97
2022-08-30T17:04:03.293Z,26.91
2022-08-30T17:06:52.320Z,26.73
2022-08-30T17:09:42.726Z,26.65
2022-08-30T17:12:32.175Z,26.58
2022-08-30T17:15:22.700Z,26.79
2022-08-30T17:21:00.376Z,26.55
2022-08-30T17:26:32.196Z,26.61
2022-08-30T17:29:21.719Z,26.20
2022-08-30T17:34:54.380Z,26.19
2022-08-30T17:37:43.145Z,26.05
2022-08-30T17:43:17.149Z,25.89
2022-08-30T17:46:07.929Z,25.78
2022-08-30T17:56:35.537Z,25.05
2022-08-30T18:02:35.010Z,24.12
2022-08-30T18:24:30.921Z,22.64
2022-08-30T18:30:00.701Z,22.35
2022-08-30T18:32:48.962Z,22.04
2022-08-30T18:38:16.889Z,22.37
2022-08-30T18:47:08.427Z,22.01
2022-08-30T18:55:35.909Z,21.82
2022-08-30T18:58:29.684Z,21.69
2022-08-30T19:04:29.529Z,21.49
2022-08-30T19:09:58.923Z,21.47
2022-08-30T19:15:28.153Z,21.38
2022-08-30T19:21:04.382Z,21.19
2022-08-30T19:26:40.678Z,21.27
2022-08-30T19:29:29.611Z,21.26
2022-08-30T19:35:07.456Z,21.19
2022-08-30T19:40:43.349Z,21.05
2022-08-30T19:43:33.667Z,21.01
2022-08-30T19:49:14.152Z,21.23
2022-08-30T19:55:03.389Z,20.93
2022-08-30T20:00:39.168Z,20.87
2022-08-30T20:06:16.124Z,20.72
2022-08-30T20:11:45.211Z,20.64
2022-08-30T20:18:02.074Z,20.44
2022-08-30T20:26:16.761Z,20.16
2022-08-30T20:31:58.591Z,20.10
2022-08-30T20:34:50.172Z,20.07
2022-08-30T20:43:28.954Z,20.25
2022-08-30T20:46:22.232Z,20.19
2022-08-30T20:52:12.304Z,20.77
2022-08-30T20:55:02.695Z,20.48
2022-08-30T21:00:59.854Z,20.64
2022-08-30T21:03:51.343Z,20.27
2022-08-30T21:09:34.093Z,20.48
2022-08-30T21:15:34.113Z,20.26
2022-08-30T21:18:04.677Z,20.23
2022-08-30T21:20:52.479Z,20.16
2022-08-30T21:26:51.980Z,20.08
2022-08-30T21:35:34.342Z,19.98
2022-08-30T21:38:23.509Z,19.96
2022-08-30T21:44:02.171Z,19.85
2022-08-30T21:46:52.468Z,19.90
2022-08-30T21:49:40.905Z,19.84
2022-08-30T21:52:29.823Z,20.05
2022-08-30T21:57:57.362Z,20.04
2022-08-30T22:03:28.015Z,19.83
2022-08-30T22:09:07.839Z,19.92
2022-08-30T22:14:39.994Z,20.01
2022-08-30T22:20:19.277Z,19.91
2022-08-30T22:25:53.780Z,19.85
2022-08-30T22:31:29.132Z,19.76
2022-08-30T22:37:07.040Z,19.76
2022-08-30T22:42:35.276Z,19.81
2022-08-30T22:45:27.396Z,19.70
2022-08-30T22:51:08.311Z,19.64
2022-08-30T22:53:57.551Z,19.55
2022-08-30T22:56:46.602Z,19.50
2022-08-30T23:02:20.544Z,19.61
2022-08-30T23:05:09.727Z,19.53
2022-08-30T23:10:45.825Z,19.57
2022-08-30T23:16:14.790Z,19.74
2022-08-30T23:21:52.516Z,19.45
2022-08-30T23:24:58.431Z,19.39
2022-08-30T23:30:54.617Z,19.17
2022-08-30T23:36:46.978Z,19.14
2022-08-30T23:39:53.146Z,19.07
2022-08-30T23:45:45.956Z,18.91
2022-08-30T23:48:52.261Z,18.85
2022-08-30T23:51:58.009Z,18.77
2022-08-30T23:57:48.570Z,19.05
